Time;durP1;ratioP1;P1;durP2;ratioP2;P2;SDS_P1;SDS_P2;PMS_P1;PMS_P2;Temp;Humidity;BMP_temperature;BMP_pressure;BME280_temperature;BME280_humidity;BME280_pressure;Samples;Min_cycle;Max_cycle;Signal;HPM_P1;HPM_P2
2023/08/25 00:00:09;;;;;;;5.87;2.87;;;;;;;;;;5071467;28;20241;-77
2023/08/25 00:02:34;;;;;;;3.70;3.40;;;;;;;;;;5053237;28;20184;-77
2023/08/25 00:04:59;;;;;;;3.47;3.17;;;;;;;;;;5053332;28;20192;-78
2023/08/25 00:07:25;;;;;;;4.03;3.43;;;;;;;;;;5053539;28;20212;-77
2023/08/25 00:09:50;;;;;;;4.47;3.97;;;;;;;;;;5053396;28;20320;-77
2023/08/25 00:12:15;;;;;;;3.80;3.50;;;;;;;;;;5053133;28;20174;-77
2023/08/25 00:14:40;;;;;;;3.30;3.00;;;;;;;;;;5072998;28;20190;-78
2023/08/25 00:17:08;;;;;;;6.13;2.87;;;;;;;;;;5053189;28;20184;-77
2023/08/25 00:19:33;;;;;;;4.17;3.00;;;;;;;;;;5048617;28;20188;-77
2023/08/25 00:21:58;;;;;;;3.20;2.90;;;;;;;;;;5054401;28;20185;-78
2023/08/25 00:24:23;;;;;;;3.63;2.83;;;;;;;;;;5057115;28;20290;-77
2023/08/25 00:26:49;;;;;;;3.17;2.80;;;;;;;;;;5052590;28;20267;-77
2023/08/25 00:29:14;;;;;;;3.50;2.90;;;;;;;;;;5054060;28;20262;-78
2023/08/25 00:31:39;;;;;;;2.77;2.57;;;;;;;;;;5053483;28;20205;-77
2023/08/25 00:34:04;;;;;;;2.80;2.60;;;;;;;;;;5051456;28;20208;-77
2023/08/25 00:36:30;;;;;;;2.60;2.40;;;;;;;;;;5050850;28;20182;-77
2023/08/25 00:38:55;;;;;;;2.97;2.73;;;;;;;;;;5053507;28;20266;-77
2023/08/25 00:41:20;;;;;;;3.20;3.00;;;;;;;;;;5052107;28;20191;-77
2023/08/25 00:43:46;;;;;;;3.27;2.97;;;;;;;;;;5053247;28;20209;-77
2023/08/25 00:46:11;;;;;;;4.70;2.63;;;;;;;;;;5069950;28;20186;-77
2023/08/25 00:48:38;;;;;;;4.00;3.67;;;;;;;;;;5070643;28;20209;-77
2023/08/25 00:51:04;;;;;;;3.07;2.77;;;;;;;;;;5038610;28;20184;-77
2023/08/25 00:53:30;;;;;;;3.67;3.03;;;;;;;;;;5053205;28;20325;-77
2023/08/25 00:55:55;;;;;;;4.83;3.67;;;;;;;;;;5052002;28;20320;-77
2023/08/25 00:58:21;;;;;;;4.73;2.80;;;;;;;;;;5067923;28;20185;-77
2023/08/25 01:00:47;;;;;;;3.93;2.90;;;;;;;;;;5068377;28;20212;-77
2023/08/25 01:03:12;;;;;;;3.20;2.83;;;;;;;;;;5067134;28;20218;-78
2023/08/25 01:05:39;;;;;;;3.40;3.10;;;;;;;;;;5052944;28;20272;-78
2023/08/25 01:08:05;;;;;;;5.20;3.30;;;;;;;;;;5052914;28;20217;-78
2023/08/25 01:10:50;;;;;;;4.13;2.77;;;;;;;;;;5051581;28;20235;-77
2023/08/25 01:13:19;;;;;;;3.00;2.70;;;;;;;;;;5051101;28;20186;-78
2023/08/25 01:15:46;;;;;;;4.30;2.93;;;;;;;;;;5069284;28;20183;-78
2023/08/25 01:18:15;;;;;;;4.57;3.60;;;;;;;;;;5051552;28;20253;-78
2023/08/25 01:20:40;;;;;;;3.37;2.90;;;;;;;;;;5052582;28;20184;-78
2023/08/25 01:23:06;;;;;;;2.80;2.60;;;;;;;;;;5052216;28;20189;-78
2023/08/25 01:25:31;;;;;;;7.17;3.30;;;;;;;;;;5052599;28;20184;-78
2023/08/25 01:27:57;;;;;;;3.67;2.80;;;;;;;;;;5051051;28;20202;-78
2023/08/25 01:30:23;;;;;;;3.20;2.63;;;;;;;;;;5045071;28;20214;-77
2023/08/25 01:32:49;;;;;;;3.20;2.90;;;;;;;;;;5048622;28;20182;-78
2023/08/25 01:35:15;;;;;;;3.43;3.13;;;;;;;;;;5051946;28;20179;-77
2023/08/25 01:37:49;;;;;;;4.20;3.80;;;;;;;;;;5069791;28;20184;-77
2023/08/25 01:40:17;;;;;;;3.80;3.40;;;;;;;;;;5053767;28;20183;-77
2023/08/25 01:42:43;;;;;;;3.40;3.10;;;;;;;;;;5052770;28;20247;-77
2023/08/25 01:45:09;;;;;;;3.90;3.50;;;;;;;;;;5054140;28;20190;-77
2023/08/25 01:47:34;;;;;;;6.07;3.63;;;;;;;;;;5050881;28;20205;-78
2023/08/25 01:49:59;;;;;;;3.53;3.23;;;;;;;;;;5051640;28;20206;-77
2023/08/25 01:52:25;;;;;;;3.90;3.60;;;;;;;;;;5051294;28;20181;-77
2023/08/25 01:54:51;;;;;;;4.13;3.70;;;;;;;;;;5050827;28;20241;-77
2023/08/25 01:57:17;;;;;;;4.17;3.73;;;;;;;;;;5060198;28;20179;-77
2023/08/25 01:59:42;;;;;;;4.13;3.83;;;;;;;;;;5051593;28;20186;-77
2023/08/25 02:02:07;;;;;;;4.00;3.70;;;;;;;;;;5052119;28;20185;-78
2023/08/25 02:04:32;;;;;;;3.47;3.20;;;;;;;;;;5053249;28;20180;-78
2023/08/25 02:06:58;;;;;;;4.07;2.90;;;;;;;;;;5050949;28;20200;-78
2023/08/25 02:09:23;;;;;;;7.93;3.53;;;;;;;;;;5048370;28;20240;-78
2023/08/25 02:11:49;;;;;;;3.60;3.30;;;;;;;;;;5055858;28;20185;-78
2023/08/25 02:14:14;;;;;;;3.70;3.40;;;;;;;;;;5050111;28;20172;-78
2023/08/25 02:16:39;;;;;;;3.83;3.47;;;;;;;;;;5052076;28;20180;-78
2023/08/25 02:19:05;;;;;;;4.03;3.73;;;;;;;;;;5053621;28;20210;-78
2023/08/25 02:21:30;;;;;;;4.13;3.40;;;;;;;;;;5070407;28;20199;-78
2023/08/25 02:23:55;;;;;;;6.33;3.73;;;;;;;;;;5055623;28;20173;-78
2023/08/25 02:26:24;;;;;;;4.07;3.77;;;;;;;;;;5054455;28;20178;-78
2023/08/25 02:28:49;;;;;;;4.17;3.77;;;;;;;;;;5049202;28;20309;-78
2023/08/25 02:31:15;;;;;;;4.30;3.57;;;;;;;;;;5050474;28;20210;-78
2023/08/25 02:33:40;;;;;;;5.73;4.13;;;;;;;;;;5050682;28;20183;-77
2023/08/25 02:36:05;;;;;;;3.67;3.23;;;;;;;;;;5050009;28;20194;-78
2023/08/25 02:38:31;;;;;;;4.57;3.33;;;;;;;;;;5069367;28;20215;-78
2023/08/25 02:40:56;;;;;;;5.83;4.03;;;;;;;;;;5049368;28;20182;-78
2023/08/25 02:43:21;;;;;;;3.70;3.40;;;;;;;;;;5052350;28;20182;-78
2023/08/25 02:45:47;;;;;;;4.10;3.80;;;;;;;;;;5055174;28;20214;-78
2023/08/25 02:48:12;;;;;;;3.93;3.57;;;;;;;;;;5053810;28;20262;-78
2023/08/25 02:50:37;;;;;;;6.83;3.63;;;;;;;;;;5055536;28;20212;-78
2023/08/25 02:53:02;;;;;;;3.93;3.53;;;;;;;;;;5067391;28;20175;-78
2023/08/25 02:55:28;;;;;;;4.93;3.70;;;;;;;;;;5054644;28;20187;-78
2023/08/25 02:57:53;;;;;;;3.97;3.57;;;;;;;;;;5051702;28;20180;-78
2023/08/25 03:00:25;;;;;;;3.97;3.60;;;;;;;;;;5054597;28;20185;-77
2023/08/25 03:02:51;;;;;;;3.93;3.63;;;;;;;;;;5055303;28;20177;-78
2023/08/25 03:05:16;;;;;;;3.63;3.33;;;;;;;;;;5054254;28;20182;-78
2023/08/25 03:07:41;;;;;;;3.67;3.37;;;;;;;;;;5054402;28;20294;-78
2023/08/25 03:10:07;;;;;;;5.97;3.90;;;;;;;;;;5054197;28;20290;-78
2023/08/25 03:12:33;;;;;;;3.43;3.13;;;;;;;;;;5054689;28;20230;-78
2023/08/25 03:14:58;;;;;;;3.93;3.53;;;;;;;;;;5051545;28;20285;-78
2023/08/25 03:17:24;;;;;;;4.33;3.77;;;;;;;;;;5053635;28;20188;-78
2023/08/25 03:19:49;;;;;;;4.10;3.27;;;;;;;;;;5054632;28;20269;-78
2023/08/25 03:22:15;;;;;;;4.67;3.47;;;;;;;;;;5071068;28;20268;-78
2023/08/25 03:24:40;;;;;;;3.20;2.90;;;;;;;;;;5056212;28;20200;-78
2023/08/25 03:27:05;;;;;;;4.10;3.23;;;;;;;;;;5053530;28;20280;-77
2023/08/25 03:29:33;;;;;;;7.37;3.50;;;;;;;;;;5053255;28;20192;-78
2023/08/25 03:31:59;;;;;;;3.07;2.63;;;;;;;;;;5070745;28;20172;-77
2023/08/25 03:34:25;;;;;;;3.70;3.30;;;;;;;;;;5054583;28;20179;-78
2023/08/25 03:36:50;;;;;;;3.50;2.87;;;;;;;;;;5053649;28;20221;-78
2023/08/25 03:39:15;;;;;;;6.07;3.30;;;;;;;;;;5054048;28;20267;-78
2023/08/25 03:41:41;;;;;;;4.30;3.20;;;;;;;;;;5054323;28;20249;-78
2023/08/25 03:44:06;;;;;;;3.47;3.17;;;;;;;;;;5054179;28;20221;-78
2023/08/25 03:46:32;;;;;;;4.77;3.40;;;;;;;;;;5053499;28;20181;-78
2023/08/25 03:48:58;;;;;;;4.03;3.27;;;;;;;;;;5071773;28;20195;-77
2023/08/25 03:51:23;;;;;;;5.20;2.90;;;;;;;;;;5071765;28;20215;-78
2023/08/25 03:53:48;;;;;;;4.53;3.30;;;;;;;;;;5052628;28;20183;-78
2023/08/25 03:56:13;;;;;;;3.77;3.00;;;;;;;;;;5068976;28;20177;-78
2023/08/25 03:58:39;;;;;;;5.30;3.13;;;;;;;;;;5054045;28;20202;-78
2023/08/25 04:01:04;;;;;;;7.20;3.27;;;;;;;;;;5053960;28;20275;-78
2023/08/25 04:03:29;;;;;;;4.90;3.67;;;;;;;;;;5054751;28;20186;-78
2023/08/25 04:05:54;;;;;;;5.07;3.10;;;;;;;;;;5055111;28;20220;-78
2023/08/25 04:08:20;;;;;;;5.20;3.47;;;;;;;;;;5053311;28;20209;-78
2023/08/25 04:10:45;;;;;;;4.53;3.20;;;;;;;;;;5054117;28;20262;-78
2023/08/25 04:13:10;;;;;;;3.73;3.30;;;;;;;;;;5065135;28;20192;-78
2023/08/25 04:15:36;;;;;;;5.13;3.50;;;;;;;;;;5057452;28;20191;-78
2023/08/25 04:18:01;;;;;;;5.13;3.40;;;;;;;;;;5054453;28;20182;-78
2023/08/25 04:20:27;;;;;;;3.87;3.30;;;;;;;;;;5054414;28;20179;-78
2023/08/25 04:22:52;;;;;;;4.60;3.20;;;;;;;;;;5053397;28;20339;-78
2023/08/25 04:25:17;;;;;;;3.87;3.57;;;;;;;;;;5057917;28;20186;-78
2023/08/25 04:27:42;;;;;;;3.70;3.20;;;;;;;;;;5053056;28;20207;-78
2023/08/25 04:30:08;;;;;;;5.17;4.07;;;;;;;;;;5053415;28;20174;-78
2023/08/25 04:32:33;;;;;;;3.40;3.10;;;;;;;;;;5050886;28;20175;-78
2023/08/25 04:34:58;;;;;;;3.63;3.33;;;;;;;;;;5052285;28;20181;-78
2023/08/25 04:37:23;;;;;;;5.50;3.77;;;;;;;;;;5050555;28;20181;-78
2023/08/25 04:39:49;;;;;;;5.23;3.10;;;;;;;;;;5069348;28;20221;-78
2023/08/25 04:42:14;;;;;;;4.70;3.53;;;;;;;;;;5052396;28;20185;-78
2023/08/25 04:44:39;;;;;;;5.53;3.00;;;;;;;;;;5052912;28;20201;-78
2023/08/25 04:47:05;;;;;;;4.10;3.30;;;;;;;;;;5057161;28;20200;-78
2023/08/25 04:49:30;;;;;;;5.33;3.43;;;;;;;;;;5053190;28;20174;-78
2023/08/25 04:51:55;;;;;;;6.83;3.50;;;;;;;;;;5052709;28;20205;-78
2023/08/25 04:54:20;;;;;;;4.00;3.27;;;;;;;;;;5052643;28;20178;-78
2023/08/25 04:56:46;;;;;;;5.50;3.27;;;;;;;;;;5067939;28;20172;-78
2023/08/25 04:59:11;;;;;;;5.17;3.43;;;;;;;;;;5052470;28;20185;-84
2023/08/25 05:01:36;;;;;;;6.40;3.50;;;;;;;;;;5051400;28;20179;-80
2023/08/25 05:04:02;;;;;;;4.70;3.30;;;;;;;;;;5071316;28;20187;-81
2023/08/25 05:06:27;;;;;;;5.13;4.03;;;;;;;;;;5051249;28;20193;-80
2023/08/25 05:08:54;;;;;;;7.37;4.80;;;;;;;;;;5053023;28;20235;-80
2023/08/25 05:11:19;;;;;;;4.90;3.57;;;;;;;;;;5053334;28;20185;-81
2023/08/25 05:13:44;;;;;;;4.73;3.30;;;;;;;;;;5055231;28;20188;-81
2023/08/25 05:16:10;;;;;;;4.57;3.23;;;;;;;;;;5071097;28;20174;-81
2023/08/25 05:18:35;;;;;;;3.37;3.07;;;;;;;;;;5048598;28;20185;-81
2023/08/25 05:21:00;;;;;;;5.77;3.20;;;;;;;;;;5052044;28;20323;-81
2023/08/25 05:23:26;;;;;;;4.23;3.87;;;;;;;;;;5071360;28;20190;-81
2023/08/25 05:25:51;;;;;;;3.90;3.20;;;;;;;;;;5051456;28;20184;-81
2023/08/25 05:28:16;;;;;;;5.07;3.60;;;;;;;;;;5053252;28;20211;-81
2023/08/25 05:30:46;;;;;;;3.53;3.23;;;;;;;;;;5053104;28;20279;-81
2023/08/25 05:33:11;;;;;;;4.77;3.13;;;;;;;;;;5053200;28;20183;-81
2023/08/25 05:35:37;;;;;;;4.23;3.57;;;;;;;;;;5069746;28;20178;-81
2023/08/25 05:38:02;;;;;;;4.73;3.60;;;;;;;;;;5070416;28;20187;-81
2023/08/25 05:40:27;;;;;;;6.67;4.20;;;;;;;;;;5051266;28;20198;-80
2023/08/25 05:42:53;;;;;;;5.37;3.53;;;;;;;;;;5076736;28;20180;-81
2023/08/25 05:45:18;;;;;;;6.30;3.33;;;;;;;;;;5054995;28;20190;-81
2023/08/25 05:47:43;;;;;;;3.50;3.20;;;;;;;;;;5049291;28;20229;-81
2023/08/25 05:50:09;;;;;;;4.10;2.93;;;;;;;;;;5052211;28;20229;-81
2023/08/25 05:52:34;;;;;;;4.37;2.93;;;;;;;;;;5053024;28;20266;-80
2023/08/25 05:54:59;;;;;;;4.83;3.20;;;;;;;;;;5069204;28;20203;-80
2023/08/25 05:57:25;;;;;;;5.60;3.77;;;;;;;;;;5051832;28;20199;-81
2023/08/25 05:59:50;;;;;;;3.97;3.53;;;;;;;;;;5052951;28;20183;-80
2023/08/25 06:02:15;;;;;;;5.17;3.90;;;;;;;;;;5051002;28;20194;-81
2023/08/25 06:04:40;;;;;;;4.53;3.63;;;;;;;;;;5051685;28;20185;-80
2023/08/25 06:07:05;;;;;;;4.10;3.73;;;;;;;;;;5068712;28;20211;-80
2023/08/25 06:09:31;;;;;;;5.47;3.90;;;;;;;;;;5051804;28;20231;-80
2023/08/25 06:11:56;;;;;;;8.30;4.13;;;;;;;;;;5052044;28;20185;-80
2023/08/25 06:14:21;;;;;;;4.87;4.47;;;;;;;;;;5053192;28;20191;-80
2023/08/25 06:16:46;;;;;;;5.70;3.80;;;;;;;;;;5071925;28;20181;-80
2023/08/25 06:19:12;;;;;;;6.67;4.27;;;;;;;;;;5072735;28;20226;-80
2023/08/25 06:21:38;;;;;;;4.20;3.80;;;;;;;;;;5055991;28;20180;-80
2023/08/25 06:24:03;;;;;;;3.80;3.43;;;;;;;;;;5054868;28;20177;-79
2023/08/25 06:26:29;;;;;;;3.67;3.33;;;;;;;;;;5053375;28;20192;-79
2023/08/25 06:28:56;;;;;;;3.50;3.20;;;;;;;;;;5055747;28;20209;-78
2023/08/25 06:31:21;;;;;;;4.13;3.47;;;;;;;;;;5072359;28;20179;-78
2023/08/25 06:33:47;;;;;;;5.97;3.50;;;;;;;;;;5055704;28;20181;-77
2023/08/25 06:36:12;;;;;;;3.87;3.17;;;;;;;;;;5056255;28;20209;-77
2023/08/25 06:38:37;;;;;;;5.27;3.57;;;;;;;;;;5071276;28;20280;-77
2023/08/25 06:41:03;;;;;;;3.87;3.07;;;;;;;;;;5073720;28;20178;-77
2023/08/25 06:43:28;;;;;;;4.40;3.30;;;;;;;;;;5055696;28;20224;-77
2023/08/25 06:45:54;;;;;;;3.40;3.10;;;;;;;;;;5071970;28;20185;-77
2023/08/25 06:48:19;;;;;;;3.27;3.07;;;;;;;;;;5074820;28;20206;-77
2023/08/25 06:50:44;;;;;;;4.30;3.90;;;;;;;;;;5073143;28;20180;-77
2023/08/25 06:53:10;;;;;;;3.30;3.00;;;;;;;;;;5074808;28;20180;-77
2023/08/25 06:55:35;;;;;;;4.10;3.73;;;;;;;;;;5072352;28;20185;-77
2023/08/25 06:58:00;;;;;;;4.83;3.60;;;;;;;;;;5052727;28;20191;-77
2023/08/25 07:00:26;;;;;;;3.63;3.33;;;;;;;;;;5073629;28;20182;-77
2023/08/25 07:02:51;;;;;;;6.13;3.13;;;;;;;;;;5055381;28;20175;-77
2023/08/25 07:05:18;;;;;;;3.60;3.20;;;;;;;;;;5055505;28;20185;-77
2023/08/25 07:07:43;;;;;;;3.43;2.73;;;;;;;;;;5054156;28;20217;-77
2023/08/25 07:10:09;;;;;;;3.53;2.90;;;;;;;;;;5055246;28;20230;-77
2023/08/25 07:12:35;;;;;;;3.07;2.87;;;;;;;;;;5054620;28;20180;-77
2023/08/25 07:15:00;;;;;;;2.67;2.47;;;;;;;;;;5053725;28;20174;-77
2023/08/25 07:17:25;;;;;;;4.07;2.53;;;;;;;;;;5054739;28;20190;-77
2023/08/25 07:19:50;;;;;;;4.60;3.03;;;;;;;;;;5055080;28;20182;-76
2023/08/25 07:22:16;;;;;;;2.93;2.63;;;;;;;;;;5057133;28;20202;-76
2023/08/25 07:24:41;;;;;;;4.13;3.10;;;;;;;;;;5070344;28;20183;-77
2023/08/25 07:27:06;;;;;;;3.53;3.13;;;;;;;;;;5055097;28;20245;-76
2023/08/25 07:29:35;;;;;;;3.23;2.80;;;;;;;;;;5054953;28;20220;-77
2023/08/25 07:32:00;;;;;;;2.77;2.53;;;;;;;;;;5054935;28;20234;-76
2023/08/25 07:34:25;;;;;;;2.83;2.57;;;;;;;;;;5056943;28;20186;-76
2023/08/25 07:36:52;;;;;;;3.97;2.63;;;;;;;;;;5066312;28;20207;-76
2023/08/25 07:39:17;;;;;;;3.33;2.93;;;;;;;;;;5073328;28;20184;-76
2023/08/25 07:41:43;;;;;;;3.33;2.50;;;;;;;;;;5059720;28;20180;-76
2023/08/25 07:44:08;;;;;;;3.00;2.70;;;;;;;;;;5049991;28;20175;-76
2023/08/25 07:46:37;;;;;;;4.17;3.03;;;;;;;;;;5057599;28;20188;-76
2023/08/25 07:49:03;;;;;;;2.93;2.63;;;;;;;;;;5050778;28;20215;-76
2023/08/25 07:51:28;;;;;;;3.63;2.83;;;;;;;;;;5055311;28;20179;-76
2023/08/25 07:53:53;;;;;;;3.53;2.60;;;;;;;;;;5055699;28;20172;-76
2023/08/25 07:56:18;;;;;;;3.83;2.83;;;;;;;;;;5055253;28;20179;-76
2023/08/25 07:58:43;;;;;;;3.40;2.60;;;;;;;;;;5073089;28;20173;-76
2023/08/25 08:01:11;;;;;;;4.73;3.03;;;;;;;;;;5054228;28;20322;-76
2023/08/25 08:03:36;;;;;;;3.90;3.30;;;;;;;;;;5053566;28;20314;-76
2023/08/25 08:06:01;;;;;;;4.13;3.00;;;;;;;;;;5054325;28;20259;-76
2023/08/25 08:08:26;;;;;;;6.43;3.33;;;;;;;;;;5054745;28;20225;-76
2023/08/25 08:10:52;;;;;;;5.50;3.20;;;;;;;;;;5054026;28;20204;-76
2023/08/25 08:13:17;;;;;;;6.03;3.23;;;;;;;;;;5050977;28;20185;-76
2023/08/25 08:15:42;;;;;;;4.90;3.13;;;;;;;;;;5070061;28;20175;-76
2023/08/25 08:18:07;;;;;;;3.60;3.20;;;;;;;;;;5055882;28;20179;-76
2023/08/25 08:20:35;;;;;;;3.60;2.97;;;;;;;;;;5068437;28;20187;-76
2023/08/25 08:23:00;;;;;;;4.67;3.00;;;;;;;;;;5050423;28;20245;-76
2023/08/25 08:25:26;;;;;;;3.60;3.30;;;;;;;;;;5054520;28;20176;-76
2023/08/25 08:27:51;;;;;;;4.30;3.23;;;;;;;;;;5052500;28;20193;-76
2023/08/25 08:30:19;;;;;;;3.50;2.93;;;;;;;;;;5053585;28;20242;-75
2023/08/25 08:32:44;;;;;;;3.87;2.97;;;;;;;;;;5053046;28;20268;-76
2023/08/25 08:35:09;;;;;;;4.07;2.70;;;;;;;;;;5071636;28;20264;-76
2023/08/25 08:37:35;;;;;;;3.67;2.50;;;;;;;;;;5070201;28;20258;-76
2023/08/25 08:40:01;;;;;;;3.60;2.73;;;;;;;;;;5067993;28;20181;-76
2023/08/25 08:42:27;;;;;;;3.70;2.80;;;;;;;;;;5052983;28;20218;-76
2023/08/25 08:44:52;;;;;;;2.87;2.43;;;;;;;;;;5071713;28;20205;-76
2023/08/25 08:47:19;;;;;;;3.03;2.20;;;;;;;;;;5053247;28;20240;-76
2023/08/25 08:49:45;;;;;;;2.90;2.50;;;;;;;;;;5054049;28;20240;-76
2023/08/25 08:52:10;;;;;;;2.63;2.43;;;;;;;;;;5070303;28;20267;-76
2023/08/25 08:54:39;;;;;;;3.00;2.57;;;;;;;;;;5053781;28;20183;-76
2023/08/25 08:57:04;;;;;;;3.33;2.93;;;;;;;;;;5070569;28;20196;-76
2023/08/25 08:59:30;;;;;;;2.87;2.57;;;;;;;;;;5071004;28;20202;-76
2023/08/25 09:01:57;;;;;;;3.17;2.70;;;;;;;;;;5050748;28;20222;-77
2023/08/25 09:04:22;;;;;;;3.03;2.23;;;;;;;;;;5068395;28;20181;-76
2023/08/25 09:06:51;;;;;;;3.10;2.83;;;;;;;;;;5053488;28;20177;-76
2023/08/25 09:09:18;;;;;;;3.00;2.77;;;;;;;;;;5052819;28;20258;-76
2023/08/25 09:11:44;;;;;;;3.53;3.23;;;;;;;;;;5052537;28;20181;-77
2023/08/25 09:14:10;;;;;;;3.17;2.87;;;;;;;;;;5070694;28;20185;-77
2023/08/25 09:16:35;;;;;;;3.37;3.07;;;;;;;;;;5051515;28;20210;-77
2023/08/25 09:19:02;;;;;;;3.70;3.13;;;;;;;;;;5051882;28;20243;-77
2023/08/25 09:21:30;;;;;;;4.27;3.57;;;;;;;;;;5071165;28;20188;-77
2023/08/25 09:23:58;;;;;;;5.80;3.80;;;;;;;;;;5052518;28;20206;-77
2023/08/25 09:26:24;;;;;;;3.63;3.23;;;;;;;;;;5070106;28;20213;-77
2023/08/25 09:28:51;;;;;;;3.60;3.30;;;;;;;;;;5051056;28;20232;-77
2023/08/25 09:31:26;;;;;;;6.40;4.00;;;;;;;;;;5067280;28;20179;-77
2023/08/25 09:33:57;;;;;;;4.03;3.37;;;;;;;;;;5066586;28;20180;-77
2023/08/25 09:36:23;;;;;;;4.50;3.90;;;;;;;;;;5049345;28;20179;-77
2023/08/25 09:38:48;;;;;;;4.83;4.43;;;;;;;;;;5052065;28;20181;-78
2023/08/25 09:41:21;;;;;;;4.83;3.00;;;;;;;;;;5052017;28;20210;-77
2023/08/25 09:43:47;;;;;;;3.90;3.60;;;;;;;;;;5069860;28;20256;-77
2023/08/25 09:46:13;;;;;;;4.43;3.43;;;;;;;;;;5051891;28;20334;-77
2023/08/25 09:48:39;;;;;;;4.53;3.53;;;;;;;;;;5051149;28;20212;-78
2023/08/25 09:51:05;;;;;;;3.93;3.33;;;;;;;;;;5054125;28;20307;-77
2023/08/25 09:53:33;;;;;;;4.30;3.90;;;;;;;;;;5057958;28;20316;-77
2023/08/25 09:56:01;;;;;;;4.90;3.90;;;;;;;;;;5065042;28;20177;-77
2023/08/25 09:58:26;;;;;;;3.77;3.47;;;;;;;;;;5059563;28;20192;-78
2023/08/25 10:00:52;;;;;;;4.57;3.77;;;;;;;;;;5059039;28;20183;-78
2023/08/25 10:03:17;;;;;;;3.43;3.10;;;;;;;;;;5058845;28;20206;-77
2023/08/25 10:05:43;;;;;;;3.47;3.17;;;;;;;;;;5057385;28;20216;-78
2023/08/25 10:08:09;;;;;;;4.17;3.50;;;;;;;;;;5057560;28;20213;-78
2023/08/25 10:10:35;;;;;;;3.40;3.17;;;;;;;;;;5053722;28;20189;-78
2023/08/25 10:13:03;;;;;;;4.10;3.70;;;;;;;;;;5053300;28;20181;-78
2023/08/25 10:15:30;;;;;;;3.83;3.37;;;;;;;;;;5076972;28;20204;-78
2023/08/25 10:17:58;;;;;;;3.40;3.10;;;;;;;;;;5057665;28;20181;-78
2023/08/25 10:20:24;;;;;;;5.87;3.87;;;;;;;;;;5058909;28;20197;-79
2023/08/25 10:22:50;;;;;;;4.87;3.23;;;;;;;;;;5077630;28;20176;-78
2023/08/25 10:25:17;;;;;;;3.90;3.50;;;;;;;;;;5075952;28;20184;-78
2023/08/25 10:27:43;;;;;;;3.50;3.20;;;;;;;;;;5055847;28;20209;-78
2023/08/25 10:30:08;;;;;;;4.27;3.70;;;;;;;;;;5057365;28;20165;-78
2023/08/25 10:32:52;;;;;;;3.60;3.30;;;;;;;;;;5077422;28;20174;-78
2023/08/25 10:35:36;;;;;;;3.50;3.20;;;;;;;;;;5054567;28;20170;-78
2023/08/25 10:38:01;;;;;;;3.00;2.80;;;;;;;;;;5057921;28;20267;-78
2023/08/25 10:40:38;;;;;;;3.30;3.00;;;;;;;;;;5059330;28;20217;-78
2023/08/25 10:43:04;;;;;;;3.20;2.90;;;;;;;;;;5056755;28;20178;-78
2023/08/25 10:45:33;;;;;;;3.17;2.90;;;;;;;;;;5077207;28;20189;-78
2023/08/25 10:47:58;;;;;;;3.37;3.10;;;;;;;;;;5058502;28;20274;-78
2023/08/25 10:50:24;;;;;;;3.37;3.07;;;;;;;;;;5058399;28;20473;-78
2023/08/25 10:52:52;;;;;;;3.30;3.00;;;;;;;;;;5072387;28;20189;-78
2023/08/25 10:55:25;;;;;;;3.10;2.80;;;;;;;;;;5073951;28;20176;-78
2023/08/25 10:57:51;;;;;;;3.47;3.17;;;;;;;;;;5054808;28;20198;-78
2023/08/25 11:00:27;;;;;;;6.53;3.10;;;;;;;;;;5057060;28;20178;-78
2023/08/25 11:02:52;;;;;;;3.47;3.17;;;;;;;;;;5054273;28;20184;-78
2023/08/25 11:05:33;;;;;;;3.47;3.13;;;;;;;;;;5074241;28;20250;-79
2023/08/25 11:08:04;;;;;;;3.63;3.00;;;;;;;;;;5069130;28;20199;-78
2023/08/25 11:10:36;;;;;;;2.90;2.60;;;;;;;;;;5055197;28;20230;-78
2023/08/25 11:13:06;;;;;;;4.87;3.03;;;;;;;;;;5055340;28;20203;-78
2023/08/25 11:15:34;;;;;;;3.67;3.20;;;;;;;;;;5056305;28;20184;-79
2023/08/25 11:17:59;;;;;;;3.60;3.30;;;;;;;;;;5071976;28;20192;-78
2023/08/25 11:20:25;;;;;;;5.70;3.30;;;;;;;;;;5060908;28;20195;-78
2023/08/25 11:22:54;;;;;;;3.50;3.20;;;;;;;;;;5056806;28;20180;-78
2023/08/25 11:25:20;;;;;;;5.10;3.67;;;;;;;;;;5071406;28;20188;-78
2023/08/25 11:27:48;;;;;;;4.37;3.13;;;;;;;;;;5067315;28;20217;-78
2023/08/25 11:30:14;;;;;;;2.87;2.60;;;;;;;;;;5068125;28;20249;-78
2023/08/25 11:32:39;;;;;;;3.50;3.20;;;;;;;;;;5070604;28;20180;-78
2023/08/25 11:35:05;;;;;;;3.80;3.47;;;;;;;;;;5051331;28;20247;-78
2023/08/25 11:37:30;;;;;;;6.30;3.27;;;;;;;;;;5072569;28;20180;-78
2023/08/25 11:39:55;;;;;;;4.47;3.60;;;;;;;;;;5054755;28;20219;-78
2023/08/25 11:42:21;;;;;;;5.10;3.30;;;;;;;;;;5077091;28;20188;-78
2023/08/25 11:44:47;;;;;;;7.47;3.60;;;;;;;;;;5055342;28;20197;-78
2023/08/25 11:47:12;;;;;;;3.70;3.40;;;;;;;;;;5062723;28;20184;-78
2023/08/25 11:49:41;;;;;;;4.37;3.33;;;;;;;;;;5054433;28;20182;-79
2023/08/25 11:52:06;;;;;;;3.60;3.27;;;;;;;;;;5071675;28;20202;-79
2023/08/25 11:54:42;;;;;;;4.47;3.43;;;;;;;;;;5054824;28;20178;-78
2023/08/25 11:57:07;;;;;;;3.63;3.33;;;;;;;;;;5055152;28;20188;-78
2023/08/25 11:59:32;;;;;;;3.77;3.43;;;;;;;;;;5070119;28;20186;-78
2023/08/25 12:01:58;;;;;;;4.47;4.07;;;;;;;;;;5049961;28;20183;-78
2023/08/25 12:04:24;;;;;;;5.00;3.60;;;;;;;;;;5072308;28;20239;-78
2023/08/25 12:06:50;;;;;;;3.97;3.57;;;;;;;;;;5072282;28;20187;-78
2023/08/25 12:09:15;;;;;;;4.10;3.80;;;;;;;;;;5051936;28;20227;-79
2023/08/25 12:11:41;;;;;;;4.00;3.50;;;;;;;;;;5054666;28;20302;-78
2023/08/25 12:14:06;;;;;;;4.03;3.63;;;;;;;;;;5053831;28;20204;-78
2023/08/25 12:16:31;;;;;;;4.33;3.93;;;;;;;;;;5055433;28;20284;-78
2023/08/25 12:18:56;;;;;;;4.60;4.10;;;;;;;;;;5053803;28;20172;-78
2023/08/25 12:21:22;;;;;;;5.40;4.27;;;;;;;;;;5054156;28;20183;-79
2023/08/25 12:23:47;;;;;;;4.27;3.87;;;;;;;;;;5070916;28;20208;-79
2023/08/25 12:26:12;;;;;;;8.40;4.20;;;;;;;;;;5054354;28;20177;-79
2023/08/25 12:28:40;;;;;;;5.13;4.00;;;;;;;;;;5053530;28;20261;-79
2023/08/25 12:31:06;;;;;;;4.63;3.97;;;;;;;;;;5053664;28;20176;-79
2023/08/25 12:33:31;;;;;;;4.53;4.13;;;;;;;;;;5070739;28;20193;-79
2023/08/25 12:35:58;;;;;;;4.53;4.13;;;;;;;;;;5052926;28;20201;-79
2023/08/25 12:38:23;;;;;;;5.90;4.50;;;;;;;;;;5067007;28;20200;-79
2023/08/25 12:40:48;;;;;;;6.93;4.40;;;;;;;;;;5073005;28;20312;-79
2023/08/25 12:43:14;;;;;;;4.67;4.27;;;;;;;;;;5052789;28;20207;-79
2023/08/25 12:45:39;;;;;;;6.83;4.87;;;;;;;;;;5060485;28;20244;-79
2023/08/25 12:48:04;;;;;;;5.73;3.93;;;;;;;;;;5072025;28;20358;-79
2023/08/25 12:50:30;;;;;;;6.07;4.60;;;;;;;;;;5053662;28;20185;-79
2023/08/25 12:52:55;;;;;;;5.83;4.17;;;;;;;;;;5052918;28;20178;-79
2023/08/25 12:55:20;;;;;;;5.20;4.10;;;;;;;;;;5050085;28;20292;-79
2023/08/25 12:57:46;;;;;;;4.60;4.20;;;;;;;;;;5053543;28;20326;-79
2023/08/25 13:00:11;;;;;;;4.63;4.07;;;;;;;;;;5052697;28;20185;-79
2023/08/25 13:02:37;;;;;;;4.77;4.27;;;;;;;;;;5071143;28;20180;-79
2023/08/25 13:05:03;;;;;;;4.97;3.87;;;;;;;;;;5053910;28;20178;-79
2023/08/25 13:07:29;;;;;;;5.17;4.03;;;;;;;;;;5053615;28;20212;-80
2023/08/25 13:09:54;;;;;;;4.40;4.00;;;;;;;;;;5052225;28;20236;-79
2023/08/25 13:12:20;;;;;;;4.53;4.13;;;;;;;;;;5051910;28;20252;-80
2023/08/25 13:14:45;;;;;;;4.17;3.77;;;;;;;;;;5069748;28;20174;-80
2023/08/25 13:17:11;;;;;;;3.75;3.45;;;;;;;;;;5052885;28;20187;-80
2023/08/25 13:19:38;;;;;;;5.22;4.18;;;;;;;;;;5070360;28;20275;-80
2023/08/25 13:22:03;;;;;;;4.50;4.10;;;;;;;;;;5068835;28;20272;-80
2023/08/25 13:24:28;;;;;;;4.00;3.60;;;;;;;;;;5070800;28;20273;-80
2023/08/25 13:26:54;;;;;;;4.60;4.20;;;;;;;;;;5067010;28;20181;-80
2023/08/25 13:29:19;;;;;;;3.95;3.30;;;;;;;;;;5069663;28;20205;-80
2023/08/25 13:31:44;;;;;;;4.10;3.70;;;;;;;;;;5067742;28;20181;-80
2023/08/25 13:34:09;;;;;;;4.10;3.80;;;;;;;;;;5069795;28;20213;-80
2023/08/25 13:36:36;;;;;;;3.70;3.13;;;;;;;;;;5052416;28;20169;-80
2023/08/25 13:39:02;;;;;;;3.78;3.40;;;;;;;;;;5046563;28;20295;-80
2023/08/25 13:41:27;;;;;;;4.47;4.03;;;;;;;;;;5046666;28;20193;-80
2023/08/25 13:43:52;;;;;;;5.60;3.95;;;;;;;;;;5049642;28;20240;-80
2023/08/25 13:46:17;;;;;;;3.38;3.08;;;;;;;;;;5049485;28;20184;-80
2023/08/25 13:48:42;;;;;;;3.53;3.22;;;;;;;;;;5048733;28;20206;-81
2023/08/25 13:51:08;;;;;;;6.35;3.67;;;;;;;;;;5067172;28;20177;-80
2023/08/25 13:53:33;;;;;;;3.90;3.20;;;;;;;;;;5044349;28;20188;-80
2023/08/25 13:55:59;;;;;;;3.90;2.78;;;;;;;;;;5048112;28;20250;-80
2023/08/25 13:58:25;;;;;;;3.50;3.20;;;;;;;;;;5044179;28;20181;-80
2023/08/25 14:00:50;;;;;;;3.65;3.00;;;;;;;;;;5042319;28;20186;-80
2023/08/25 14:03:15;;;;;;;4.03;3.63;;;;;;;;;;5047389;28;20174;-80
2023/08/25 14:05:41;;;;;;;3.83;3.45;;;;;;;;;;5045620;28;20215;-81
2023/08/25 14:08:06;;;;;;;3.30;3.00;;;;;;;;;;5046222;28;20211;-81
2023/08/25 14:10:32;;;;;;;5.68;3.53;;;;;;;;;;5065662;28;20271;-81
2023/08/25 14:12:57;;;;;;;4.10;3.70;;;;;;;;;;5044518;28;20200;-80
2023/08/25 14:15:22;;;;;;;7.65;3.63;;;;;;;;;;5048645;28;20186;-80
2023/08/25 14:17:47;;;;;;;8.68;3.70;;;;;;;;;;5044977;28;20173;-80
2023/08/25 14:20:12;;;;;;;5.15;3.30;;;;;;;;;;5050211;28;20177;-82
2023/08/25 14:22:38;;;;;;;4.55;2.97;;;;;;;;;;5064237;28;20181;-81
2023/08/25 14:25:03;;;;;;;5.40;3.42;;;;;;;;;;5049818;28;20205;-81
2023/08/25 14:27:29;;;;;;;3.13;2.80;;;;;;;;;;5070421;28;20204;-81
2023/08/25 14:29:54;;;;;;;4.53;3.25;;;;;;;;;;5045904;28;20209;-84
2023/08/25 14:32:19;;;;;;;3.88;2.97;;;;;;;;;;5043541;28;20251;-85
2023/08/25 14:34:44;;;;;;;3.38;3.08;;;;;;;;;;5051767;28;20178;-84